Time;durP1;ratioP1;P1;durP2;ratioP2;P2;SDS_P1;SDS_P2;PMS_P1;PMS_P2;Temp;Humidity;BMP_temperature;BMP_pressure;BME280_temperature;BME280_humidity;BME280_pressure;Samples;Min_cycle;Max_cycle;Signal;HPM_P1;HPM_P2
2022/06/28 00:00:05;;;;;;;7.20;3.80;;;17.70;99.90;;;;;;5016920;28;20213;-75
2022/06/28 00:02:30;;;;;;;7.57;4.00;;;17.70;99.90;;;;;;5007087;28;20178;-75
2022/06/28 00:04:56;;;;;;;5.70;3.77;;;17.70;99.90;;;;;;5006677;28;20511;-75
2022/06/28 00:07:22;;;;;;;9.17;3.40;;;17.70;99.90;;;;;;5007005;28;20744;-75
2022/06/28 00:09:47;;;;;;;3.97;3.33;;;17.70;99.90;;;;;;5006484;28;20186;-76
2022/06/28 00:12:13;;;;;;;4.60;3.40;;;17.70;99.90;;;;;;5007448;28;20190;-75
2022/06/28 00:17:22;;;;;;;4.47;2.93;;;17.80;99.90;;;;;;5007118;28;20209;-75
2022/06/28 00:19:48;;;;;;;4.03;3.40;;;17.90;99.90;;;;;;4989799;28;20888;-75
2022/06/28 00:22:13;;;;;;;9.77;3.20;;;17.80;99.90;;;;;;5006855;28;20194;-75
2022/06/28 00:24:39;;;;;;;4.23;2.87;;;17.80;99.90;;;;;;5006583;28;20228;-74
2022/06/28 00:27:05;;;;;;;7.07;3.30;;;17.80;99.90;;;;;;5008619;28;20619;-75
2022/06/28 00:29:30;;;;;;;4.60;2.80;;;17.80;99.90;;;;;;5020800;28;20178;-75
2022/06/28 00:31:56;;;;;;;6.40;3.20;;;17.80;99.90;;;;;;5005660;28;20178;-75
2022/06/28 00:34:22;;;;;;;5.37;3.77;;;17.80;99.90;;;;;;5007239;28;20245;-74
2022/06/28 00:36:47;;;;;;;3.97;2.90;;;17.80;99.90;;;;;;5006541;28;20641;-75
2022/06/28 00:39:13;;;;;;;4.63;3.13;;;17.70;99.90;;;;;;5010928;28;20174;-75
2022/06/28 00:41:39;;;;;;;7.60;3.30;;;17.60;99.90;;;;;;5010376;28;20788;-75
2022/06/28 00:44:05;;;;;;;5.37;3.23;;;17.60;99.90;;;;;;4992501;28;20186;-74
2022/06/28 00:46:33;;;;;;;5.60;3.40;;;17.50;99.90;;;;;;5018340;28;20579;-74
2022/06/28 00:49:00;;;;;;;4.40;3.03;;;17.50;99.90;;;;;;5001374;28;20180;-75
2022/06/28 00:51:25;;;;;;;3.40;3.10;;;17.40;99.90;;;;;;5010331;28;20416;-74
2022/06/28 00:53:51;;;;;;;6.63;3.23;;;18.00;99.90;;;;;;5010924;28;21110;-74
2022/06/28 00:56:17;;;;;;;4.40;3.17;;;17.30;99.90;;;;;;5009654;28;20644;-74
2022/06/28 00:58:42;;;;;;;6.23;3.23;;;17.30;99.90;;;;;;5021819;28;20241;-75
2022/06/28 01:01:08;;;;;;;7.60;3.30;;;17.20;99.90;;;;;;5016436;28;20201;-74
2022/06/28 01:03:33;;;;;;;8.20;3.47;;;17.20;99.90;;;;;;5011260;28;20268;-74
2022/06/28 01:05:59;;;;;;;3.50;2.97;;;17.20;99.90;;;;;;5009079;28;20266;-75
2022/06/28 01:08:25;;;;;;;5.80;3.20;;;17.10;99.90;;;;;;5011311;28;20179;-75
2022/06/28 01:10:51;;;;;;;3.10;2.80;;;17.10;99.90;;;;;;5009794;28;20190;-75
2022/06/28 01:13:16;;;;;;;7.93;3.97;;;17.10;99.90;;;;;;4992823;28;20443;-75
2022/06/28 01:15:42;;;;;;;6.27;3.07;;;17.10;99.90;;;;;;5010009;28;20202;-75
2022/06/28 01:18:09;;;;;;;3.80;3.03;;;17.00;99.90;;;;;;4992748;28;20258;-75
2022/06/28 01:20:36;;;;;;;4.70;3.17;;;17.00;99.90;;;;;;5010336;28;20540;-75
2022/06/28 01:23:02;;;;;;;3.53;3.10;;;16.90;99.90;;;;;;5007417;28;20559;-74
2022/06/28 01:25:28;;;;;;;4.00;3.00;;;16.90;99.90;;;;;;5010377;28;20922;-75
2022/06/28 01:27:55;;;;;;;4.07;2.93;;;16.80;99.90;;;;;;5002956;28;20441;-74
2022/06/28 01:30:21;;;;;;;3.47;3.10;;;16.80;99.90;;;;;;4986969;28;20499;-75
2022/06/28 01:32:47;;;;;;;7.13;3.30;;;16.70;99.90;;;;;;4987038;28;20967;-74
2022/06/28 01:35:13;;;;;;;5.37;3.40;;;16.50;99.90;;;;;;4992177;28;20550;-75
2022/06/28 01:37:39;;;;;;;6.13;3.40;;;16.40;99.90;;;;;;5009553;28;20856;-75
2022/06/28 01:40:06;;;;;;;4.40;3.23;;;16.30;99.90;;;;;;5010290;28;20171;-75
2022/06/28 01:42:31;;;;;;;5.93;3.13;;;16.30;99.90;;;;;;5009357;28;20186;-74
2022/06/28 01:44:58;;;;;;;4.20;3.07;;;16.20;99.90;;;;;;5010119;28;21033;-75
2022/06/28 01:47:26;;;;;;;5.03;3.40;;;16.20;99.90;;;;;;5008482;28;20237;-74
2022/06/28 01:49:53;;;;;;;6.83;3.00;;;16.20;99.90;;;;;;4991299;28;20861;-75
2022/06/28 01:52:19;;;;;;;8.90;3.60;;;16.20;99.90;;;;;;5008782;28;20437;-75
2022/06/28 01:54:44;;;;;;;5.40;3.60;;;16.20;99.90;;;;;;5008235;28;20832;-74
2022/06/28 01:57:10;;;;;;;5.40;3.43;;;16.20;99.90;;;;;;5008235;28;20190;-75
2022/06/28 01:59:37;;;;;;;4.53;2.73;;;16.20;99.90;;;;;;5021857;28;20656;-74
2022/06/28 02:02:03;;;;;;;5.27;2.80;;;16.10;99.90;;;;;;5007147;28;20552;-74
2022/06/28 02:04:29;;;;;;;9.80;2.90;;;16.10;99.90;;;;;;5009304;28;20513;-74
2022/06/28 02:06:56;;;;;;;6.37;3.40;;;16.10;99.90;;;;;;5009725;28;20265;-74
2022/06/28 02:09:22;;;;;;;9.27;3.30;;;16.00;99.90;;;;;;4991556;28;20417;-74
2022/06/28 02:11:48;;;;;;;8.67;3.20;;;15.90;99.90;;;;;;5008866;28;20437;-74
2022/06/28 02:14:14;;;;;;;11.30;2.80;;;15.90;99.90;;;;;;4991292;28;20643;-74
2022/06/28 02:16:39;;;;;;;5.40;2.80;;;15.80;99.90;;;;;;4990387;28;20433;-74
2022/06/28 02:19:05;;;;;;;3.73;2.80;;;15.70;99.90;;;;;;5009612;28;20179;-74
2022/06/28 02:21:38;;;;;;;4.90;2.93;;;15.70;99.90;;;;;;5008700;28;20301;-74
2022/06/28 02:24:05;;;;;;;3.33;2.50;;;15.60;99.90;;;;;;5001296;28;20741;-74
2022/06/28 02:26:32;;;;;;;4.70;2.87;;;15.60;99.90;;;;;;5007702;28;20533;-74
2022/06/28 02:29:02;;;;;;;6.80;2.77;;;15.60;99.90;;;;;;5029299;28;20891;-74
2022/06/28 02:31:27;;;;;;;3.90;2.90;;;15.60;99.90;;;;;;5019235;28;20480;-74
2022/06/28 02:33:54;;;;;;;3.63;2.90;;;15.60;99.90;;;;;;5008654;28;20499;-75
2022/06/28 02:41:48;;;;;;;5.70;3.00;;;15.50;99.90;;;;;;5007682;28;20474;-75
2022/06/28 02:44:16;;;;;;;5.27;2.40;;;15.40;99.90;;;;;;4991487;28;20516;-74
2022/06/28 02:46:42;;;;;;;8.00;3.10;;;15.50;99.90;;;;;;5007947;28;20171;-74
2022/06/28 02:49:07;;;;;;;5.13;3.10;;;15.40;99.90;;;;;;5008889;28;20771;-74
2022/06/28 02:51:33;;;;;;;8.13;2.90;;;15.40;99.90;;;;;;5008608;28;20441;-76
2022/06/28 02:53:58;;;;;;;5.47;2.97;;;15.40;99.90;;;;;;5005696;28;20265;-74
2022/06/28 02:56:24;;;;;;;4.93;2.83;;;15.30;99.90;;;;;;5005166;28;20296;-74
2022/06/28 02:58:49;;;;;;;4.57;2.90;;;15.30;99.90;;;;;;5008186;28;20237;-74
2022/06/28 03:01:15;;;;;;;4.63;2.70;;;15.30;99.90;;;;;;5015193;28;20203;-74
2022/06/28 03:03:41;;;;;;;6.67;2.70;;;15.20;99.90;;;;;;4990952;28;20262;-75
2022/06/28 03:06:06;;;;;;;5.53;2.80;;;15.20;99.90;;;;;;5007996;28;20202;-74
2022/06/28 03:08:33;;;;;;;4.07;3.40;;;15.20;99.90;;;;;;5008889;28;20649;-74
2022/06/28 03:10:58;;;;;;;4.27;3.10;;;15.10;99.90;;;;;;5006572;28;20175;-74
2022/06/28 03:13:24;;;;;;;6.90;3.13;;;15.10;99.90;;;;;;5008911;28;20420;-74
2022/06/28 03:15:50;;;;;;;8.40;3.40;;;15.10;99.90;;;;;;4989626;28;20202;-74
2022/06/28 03:18:16;;;;;;;8.03;3.27;;;15.10;99.90;;;;;;5009166;28;20174;-74
2022/06/28 03:20:41;;;;;;;12.63;3.27;;;15.10;99.90;;;;;;5006899;28;20202;-75
2022/06/28 03:23:07;;;;;;;5.93;3.20;;;15.10;99.90;;;;;;4990140;28;20168;-74
2022/06/28 03:25:33;;;;;;;6.67;3.20;;;15.00;99.90;;;;;;5006348;28;20221;-74
2022/06/28 03:27:58;;;;;;;5.07;3.30;;;15.00;99.90;;;;;;5006228;28;20213;-74
2022/06/28 03:30:24;;;;;;;9.50;3.27;;;15.00;99.90;;;;;;5006595;28;20657;-74
2022/06/28 03:32:50;;;;;;;4.80;3.00;;;15.00;99.90;;;;;;5007870;28;20205;-74
2022/06/28 03:35:15;;;;;;;3.70;2.90;;;14.90;99.90;;;;;;4988006;28;20211;-74
2022/06/28 03:37:41;;;;;;;9.00;3.20;;;14.90;99.90;;;;;;4990275;28;20609;-74
2022/06/28 03:40:07;;;;;;;4.40;3.67;;;14.90;99.90;;;;;;4988919;28;20178;-74
2022/06/28 03:42:33;;;;;;;7.70;3.67;;;14.80;99.90;;;;;;5007291;28;20200;-74
2022/06/28 03:44:58;;;;;;;14.03;3.20;;;14.70;99.90;;;;;;5008023;28;20443;-75
2022/06/28 03:47:24;;;;;;;4.00;3.20;;;14.70;99.90;;;;;;4988705;28;20257;-74
2022/06/28 03:49:49;;;;;;;8.40;3.27;;;14.60;99.90;;;;;;5007717;28;20178;-74
2022/06/28 03:52:15;;;;;;;6.73;3.10;;;14.70;99.90;;;;;;5006439;28;20232;-74
2022/06/28 03:54:41;;;;;;;7.77;3.67;;;14.70;99.90;;;;;;5006591;28;20206;-74
2022/06/28 03:57:07;;;;;;;6.17;3.37;;;14.80;99.90;;;;;;5011499;28;20944;-74
2022/06/28 03:59:33;;;;;;;8.37;3.07;;;14.80;99.90;;;;;;5027884;28;20216;-74
2022/06/28 04:01:58;;;;;;;5.47;3.00;;;14.90;99.90;;;;;;5012411;28;20236;-76
2022/06/28 04:04:24;;;;;;;3.10;2.47;;;14.80;99.90;;;;;;5001487;28;20544;-74
2022/06/28 04:06:50;;;;;;;6.00;3.30;;;14.50;99.90;;;;;;5005531;28;20171;-74
2022/06/28 04:09:17;;;;;;;9.87;3.27;;;14.80;99.90;;;;;;5007409;28;20637;-74
2022/06/28 04:11:43;;;;;;;6.60;3.37;;;14.80;99.90;;;;;;4981278;28;20186;-75
2022/06/28 04:14:13;;;;;;;6.43;3.43;;;14.80;99.90;;;;;;5008016;28;20804;-74
2022/06/28 04:16:39;;;;;;;4.37;3.17;;;14.80;99.90;;;;;;5006164;28;20178;-74
2022/06/28 04:19:05;;;;;;;3.73;2.90;;;14.80;99.90;;;;;;5007426;28;20405;-74
2022/06/28 04:21:30;;;;;;;4.40;3.30;;;14.90;99.90;;;;;;5007089;28;20504;-74
2022/06/28 04:23:56;;;;;;;6.13;3.20;;;14.90;99.90;;;;;;5006286;28;20190;-74
2022/06/28 04:26:21;;;;;;;15.03;4.13;;;15.00;99.90;;;;;;5005901;28;20684;-74
2022/06/28 04:28:47;;;;;;;6.80;3.30;;;15.00;99.90;;;;;;4992006;28;20179;-74
2022/06/28 04:31:12;;;;;;;6.23;4.03;;;15.00;99.90;;;;;;5010740;28;20262;-74
2022/06/28 04:33:38;;;;;;;5.30;3.77;;;15.20;99.90;;;;;;5006688;28;20204;-75
2022/06/28 04:36:04;;;;;;;8.37;4.10;;;15.20;99.90;;;;;;5007447;28;20615;-74
2022/06/28 04:38:30;;;;;;;4.50;3.50;;;15.30;99.90;;;;;;4998622;28;20649;-74
2022/06/28 04:40:55;;;;;;;4.20;3.33;;;15.40;99.90;;;;;;5003609;28;20453;-74
2022/06/28 04:43:21;;;;;;;4.03;3.63;;;15.50;99.90;;;;;;4990277;28;20229;-74
2022/06/28 04:45:47;;;;;;;6.20;3.10;;;15.60;99.90;;;;;;5005867;28;20198;-74
2022/06/28 04:48:12;;;;;;;5.60;4.00;;;15.70;99.90;;;;;;5006714;28;20181;-74
2022/06/28 04:50:38;;;;;;;6.00;3.60;;;15.80;99.90;;;;;;5006719;28;20394;-74
2022/06/28 04:53:03;;;;;;;3.80;3.50;;;15.90;99.90;;;;;;5007165;28;20195;-74
2022/06/28 04:55:29;;;;;;;8.07;4.00;;;16.00;99.90;;;;;;5005159;28;20210;-74
2022/06/28 04:57:54;;;;;;;6.73;3.87;;;16.10;99.90;;;;;;4999756;28;20236;-74
2022/06/28 05:00:20;;;;;;;6.13;4.40;;;16.10;99.90;;;;;;5009670;28;20379;-74
2022/06/28 05:02:45;;;;;;;5.00;4.47;;;16.20;99.90;;;;;;5005851;28;20253;-74
2022/06/28 05:05:11;;;;;;;6.80;4.70;;;16.20;99.90;;;;;;4984976;28;20190;-74
2022/06/28 05:07:37;;;;;;;9.50;5.23;;;16.30;99.90;;;;;;5006345;28;20186;-74
2022/06/28 05:10:03;;;;;;;12.33;5.50;;;16.30;99.90;;;;;;5005338;28;20179;-74
2022/06/28 05:12:29;;;;;;;6.60;4.97;;;16.40;99.90;;;;;;5005323;28;20189;-74
2022/06/28 05:14:55;;;;;;;7.80;5.73;;;16.50;99.90;;;;;;5005821;28;20460;-74
2022/06/28 05:17:20;;;;;;;13.30;5.77;;;16.50;99.90;;;;;;5005709;28;20201;-74
2022/06/28 05:19:46;;;;;;;7.27;4.40;;;16.60;99.90;;;;;;5006814;28;20174;-74
2022/06/28 05:22:11;;;;;;;9.00;4.87;;;16.70;99.90;;;;;;5006731;28;20209;-75
2022/06/28 05:24:37;;;;;;;11.97;4.83;;;16.70;99.90;;;;;;5005428;28;20198;-76
2022/06/28 05:27:04;;;;;;;7.07;4.70;;;16.80;99.90;;;;;;5006859;28;20178;-74
2022/06/28 05:29:29;;;;;;;11.70;6.90;;;16.80;99.90;;;;;;5006549;28;20437;-74
2022/06/28 05:31:55;;;;;;;13.23;6.40;;;16.90;99.90;;;;;;5009346;28;20959;-73
2022/06/28 05:34:21;;;;;;;10.10;5.20;;;17.00;99.90;;;;;;5010727;28;20218;-77
2022/06/28 05:36:47;;;;;;;6.47;5.30;;;17.00;99.90;;;;;;4994100;28;20179;-74
2022/06/28 05:39:13;;;;;;;9.97;5.97;;;17.10;99.90;;;;;;4988904;28;20812;-75
2022/06/28 05:41:41;;;;;;;5.43;4.67;;;17.20;99.90;;;;;;5008430;28;20207;-74
2022/06/28 05:44:07;;;;;;;13.40;5.57;;;17.20;99.90;;;;;;5010584;28;20254;-75
2022/06/28 05:46:33;;;;;;;7.30;4.80;;;17.30;99.90;;;;;;5010921;28;20496;-75
2022/06/28 05:48:59;;;;;;;6.97;5.30;;;17.30;99.90;;;;;;5011218;28;20501;-75
2022/06/28 05:51:24;;;;;;;6.23;4.90;;;17.40;99.90;;;;;;5010670;28;20235;-74
2022/06/28 05:53:50;;;;;;;6.23;4.70;;;17.50;99.60;;;;;;5010868;28;20590;-75
2022/06/28 05:56:16;;;;;;;7.53;4.50;;;17.50;98.60;;;;;;5011336;28;20338;-75
2022/06/28 05:58:41;;;;;;;5.83;5.13;;;17.60;99.90;;;;;;5002979;28;20282;-74
2022/06/28 06:01:07;;;;;;;10.20;4.90;;;17.70;97.80;;;;;;5030003;28;20209;-75
2022/06/28 06:03:33;;;;;;;6.77;4.53;;;17.70;98.60;;;;;;5031369;28;20184;-74
2022/06/28 06:05:59;;;;;;;15.27;5.00;;;17.70;98.90;;;;;;4994196;28;20189;-75
2022/06/28 06:08:24;;;;;;;10.50;5.10;;;17.80;97.30;;;;;;5011060;28;20795;-75
2022/06/28 06:10:50;;;;;;;9.40;5.00;;;17.80;94.10;;;;;;5010801;28;20177;-74
2022/06/28 06:13:15;;;;;;;7.10;4.73;;;17.80;92.30;;;;;;4992810;28;20254;-75
2022/06/28 06:15:41;;;;;;;5.50;4.70;;;17.90;92.80;;;;;;5010149;28;20281;-75
2022/06/28 06:18:07;;;;;;;13.30;4.13;;;18.00;90.00;;;;;;5011429;28;20186;-75
2022/06/28 06:20:33;;;;;;;5.20;4.37;;;18.10;83.70;;;;;;5010610;28;20187;-75
2022/06/28 06:22:58;;;;;;;10.43;4.30;;;18.10;82.10;;;;;;5010223;28;20277;-75
2022/06/28 06:25:24;;;;;;;5.10;4.07;;;18.10;83.00;;;;;;5010562;28;20190;-75
2022/06/28 06:27:49;;;;;;;13.10;4.17;;;18.20;81.70;;;;;;5003246;28;20177;-75
2022/06/28 06:30:15;;;;;;;6.33;3.90;;;18.30;83.20;;;;;;5030260;28;20268;-75
2022/06/28 06:32:40;;;;;;;6.80;4.27;;;18.40;81.30;;;;;;5029585;28;20174;-75
2022/06/28 06:35:07;;;;;;;8.60;4.43;;;18.70;77.60;;;;;;5011273;28;20209;-75
2022/06/28 06:37:32;;;;;;;7.10;3.70;;;18.60;62.80;;;;;;5014533;28;20648;-75
2022/06/28 06:39:58;;;;;;;5.23;3.60;;;18.60;62.30;;;;;;5009791;28;20489;-75
2022/06/28 06:42:24;;;;;;;9.27;3.97;;;18.60;58.90;;;;;;5010342;28;20232;-75
2022/06/28 06:44:49;;;;;;;6.03;4.03;;;18.70;56.30;;;;;;4992847;28;20187;-75
2022/06/28 06:47:15;;;;;;;8.70;3.93;;;18.80;53.50;;;;;;5009982;28;20182;-75
2022/06/28 06:49:40;;;;;;;7.43;4.23;;;18.90;57.80;;;;;;5010067;28;20317;-75
2022/06/28 06:52:06;;;;;;;7.83;3.97;;;18.90;54.10;;;;;;5009491;28;20198;-75
2022/06/28 06:54:31;;;;;;;5.30;3.47;;;19.00;50.60;;;;;;5010125;28;20213;-74
2022/06/28 06:56:57;;;;;;;6.83;3.90;;;19.10;45.60;;;;;;5013295;28;20644;-75
2022/06/28 06:59:22;;;;;;;5.20;3.70;;;19.20;45.60;;;;;;5029881;28;20320;-75
2022/06/28 07:01:48;;;;;;;7.67;3.93;;;19.30;45.70;;;;;;5010610;28;20727;-75
2022/06/28 07:04:15;;;;;;;6.30;3.37;;;19.50;43.90;;;;;;5029341;28;20276;-75
2022/06/28 07:06:41;;;;;;;10.10;3.57;;;19.50;34.20;;;;;;5030064;28;20257;-75
2022/06/28 07:09:06;;;;;;;10.40;3.50;;;20.80;30.40;;;;;;5029109;28;20523;-75
2022/06/28 07:11:33;;;;;;;5.90;2.87;;;20.00;21.80;;;;;;5029218;28;20481;-74
2022/06/28 07:13:59;;;;;;;5.60;3.03;;;20.30;14.90;;;;;;5012165;28;20220;-75
2022/06/28 07:16:24;;;;;;;6.57;3.27;;;20.20;15.60;;;;;;5029020;28;20903;-75
2022/06/28 07:18:50;;;;;;;10.63;3.07;;;20.40;13.90;;;;;;5029424;28;20174;-75
2022/06/28 07:21:15;;;;;;;7.53;3.43;;;20.30;12.80;;;;;;5028910;28;20193;-75
2022/06/28 07:23:41;;;;;;;4.33;2.97;;;20.70;9.00;;;;;;5010989;28;20170;-75
2022/06/28 07:26:07;;;;;;;6.23;3.33;;;21.00;2.80;;;;;;5005943;28;20179;-75
2022/06/28 07:28:32;;;;;;;6.33;3.50;;;21.00;5.20;;;;;;5008789;28;20202;-74
2022/06/28 07:30:58;;;;;;;6.07;3.47;;;21.30;3.00;;;;;;5008216;28;20201;-74
2022/06/28 07:33:23;;;;;;;5.50;3.03;;;21.50;1.00;;;;;;5009601;28;20565;-75
2022/06/28 07:35:49;;;;;;;7.50;2.80;;;21.70;1.00;;;;;;5009046;28;20198;-75
2022/06/28 07:38:14;;;;;;;4.97;2.90;;;21.60;1.00;;;;;;5009482;28;20179;-75
2022/06/28 07:40:40;;;;;;;6.20;3.20;;;21.70;1.00;;;;;;5008826;28;20206;-75
2022/06/28 07:43:06;;;;;;;8.57;3.10;;;22.00;1.00;;;;;;5009096;28;20518;-75
2022/06/28 07:45:36;;;;;;;6.67;2.93;;;22.30;1.00;;;;;;5008255;28;20221;-75
2022/06/28 07:48:02;;;;;;;6.03;2.50;;;22.60;1.00;;;;;;4991184;28;20185;-75
2022/06/28 07:53:12;;;;;;;4.70;2.40;;;22.80;1.00;;;;;;5008047;28;20563;-75
2022/06/28 07:55:37;;;;;;;5.53;2.50;;;22.90;1.00;;;;;;5008711;28;20535;-75
2022/06/28 07:58:03;;;;;;;4.53;2.30;;;23.10;1.00;;;;;;5021569;28;20471;-75
2022/06/28 08:00:29;;;;;;;6.70;2.27;;;23.20;1.00;;;;;;5028332;28;20209;-75
2022/06/28 08:02:54;;;;;;;11.60;2.50;;;23.40;1.00;;;;;;5028717;28;20248;-74
2022/06/28 08:05:21;;;;;;;3.80;2.20;;;23.40;1.00;;;;;;5008558;28;20205;-75
2022/06/28 08:07:48;;;;;;;4.50;2.10;;;23.50;1.00;;;;;;5009196;28;20240;-74
2022/06/28 08:10:14;;;;;;;3.30;2.17;;;23.80;1.00;;;;;;4990814;28;20421;-75
2022/06/28 08:12:40;;;;;;;4.97;2.37;;;24.00;1.00;;;;;;5008592;28;20405;-75
2022/06/28 08:15:07;;;;;;;3.20;2.00;;;24.20;1.00;;;;;;5008487;28;20516;-75
2022/06/28 08:17:33;;;;;;;5.40;2.10;;;24.40;1.00;;;;;;5008817;28;20170;-75
2022/06/28 08:19:58;;;;;;;3.53;2.00;;;24.40;1.00;;;;;;5008523;28;20408;-75
2022/06/28 08:22:24;;;;;;;2.90;2.10;;;24.40;1.00;;;;;;4989997;28;20761;-75
2022/06/28 08:24:49;;;;;;;4.93;2.23;;;24.70;1.00;;;;;;5008648;28;20624;-75
2022/06/28 08:27:15;;;;;;;5.10;2.70;;;24.90;1.00;;;;;;5014476;28;20235;-74
2022/06/28 08:29:45;;;;;;;3.80;2.03;;;24.90;1.00;;;;;;5010729;28;20230;-75
2022/06/28 08:32:11;;;;;;;4.53;2.13;;;24.90;1.00;;;;;;5027394;28;20193;-75
2022/06/28 08:34:37;;;;;;;6.77;1.93;;;24.90;1.00;;;;;;5010000;28;20997;-75
2022/06/28 08:37:04;;;;;;;4.67;2.30;;;25.10;1.00;;;;;;5020476;28;20179;-75
2022/06/28 08:39:30;;;;;;;2.90;2.00;;;25.40;1.00;;;;;;5004307;28;20884;-75
2022/06/28 08:41:59;;;;;;;3.97;2.10;;;25.50;1.00;;;;;;5008105;28;20452;-74
2022/06/28 08:44:26;;;;;;;4.30;1.93;;;25.40;1.00;;;;;;5009034;28;20197;-75
2022/06/28 08:46:52;;;;;;;4.47;2.17;;;25.50;1.00;;;;;;4990293;28;20501;-75
2022/06/28 08:49:50;;;;;;;3.30;2.20;;;25.60;1.00;;;;;;5008493;28;20409;-75
2022/06/28 08:52:17;;;;;;;4.83;2.03;;;25.60;1.00;;;;;;4999337;28;20857;-75
2022/06/28 08:54:43;;;;;;;3.83;2.07;;;25.90;1.00;;;;;;5008148;28;20440;-74
2022/06/28 08:57:09;;;;;;;5.20;2.20;;;26.00;1.00;;;;;;4995279;28;20416;-75
2022/06/28 08:59:36;;;;;;;5.13;1.90;;;26.20;1.00;;;;;;5032105;28;20411;-75
2022/06/28 09:02:07;;;;;;;2.93;1.70;;;26.30;1.00;;;;;;5030514;28;20666;-75
2022/06/28 09:04:33;;;;;;;3.80;1.90;;;26.50;1.00;;;;;;5031577;28;20467;-75
2022/06/28 09:06:59;;;;;;;3.60;2.00;;;26.80;1.00;;;;;;5032366;28;20462;-75
2022/06/28 09:09:25;;;;;;;2.30;1.50;;;27.00;1.00;;;;;;5031269;28;20404;-75
2022/06/28 09:11:53;;;;;;;5.63;2.00;;;27.40;1.00;;;;;;5013465;28;20512;-75
2022/06/28 09:14:35;;;;;;;2.70;1.57;;;27.90;1.00;;;;;;5031749;28;20221;-75
2022/06/28 09:17:21;;;;;;;5.80;2.00;;;29.20;1.00;;;;;;5013768;28;20518;-76
2022/06/28 09:19:47;;;;;;;5.22;2.00;;;30.30;1.00;;;;;;5030478;28;20793;-76
2022/06/28 09:22:31;;;;;;;4.63;1.97;;;31.50;1.00;;;;;;5030994;28;20205;-76
2022/06/28 09:24:57;;;;;;;4.50;1.60;;;32.80;1.00;;;;;;5031191;28;20203;-76
2022/06/28 09:27:38;;;;;;;2.72;1.40;;;33.30;1.00;;;;;;5000383;28;20194;-76
2022/06/28 09:30:11;;;;;;;3.03;1.60;;;33.50;1.00;;;;;;5011331;28;20635;-76
2022/06/28 09:32:39;;;;;;;4.05;1.70;;;34.00;1.00;;;;;;4993248;28;20174;-76
2022/06/28 09:35:06;;;;;;;4.47;1.80;;;34.80;1.00;;;;;;5011393;28;20212;-76
2022/06/28 09:37:47;;;;;;;2.47;1.50;;;35.40;1.00;;;;;;5011272;28;20244;-76
2022/06/28 09:40:31;;;;;;;2.38;1.42;;;36.00;1.00;;;;;;4993531;28;20174;-76
2022/06/28 09:43:15;;;;;;;2.88;1.40;;;36.10;1.00;;;;;;4993395;28;20674;-76
2022/06/28 09:45:42;;;;;;;2.42;1.48;;;35.40;1.00;;;;;;5010559;28;20510;-76
2022/06/28 09:48:14;;;;;;;6.85;1.60;;;36.00;1.00;;;;;;4994094;28;20180;-76
2022/06/28 09:50:40;;;;;;;3.65;1.60;;;35.80;1.00;;;;;;5011001;28;20178;-76
2022/06/28 09:53:06;;;;;;;5.10;2.35;;;35.90;1.00;;;;;;5010585;28;20257;-76
2022/06/28 09:55:33;;;;;;;2.30;1.48;;;35.20;1.00;;;;;;5010813;28;20494;-76
2022/06/28 09:58:02;;;;;;;3.97;1.70;;;35.70;1.00;;;;;;5013993;28;20264;-76
2022/06/28 10:00:29;;;;;;;2.85;1.60;;;36.40;1.00;;;;;;5021766;28;20185;-76
2022/06/28 10:02:56;;;;;;;3.60;1.60;;;36.60;1.00;;;;;;5010816;28;20645;-76
2022/06/28 10:05:22;;;;;;;3.97;1.80;;;37.00;1.00;;;;;;5010394;28;20332;-76
2022/06/28 10:07:48;;;;;;;4.15;1.58;;;37.10;1.00;;;;;;5010772;28;20261;-76
2022/06/28 10:10:15;;;;;;;4.88;1.58;;;37.20;1.00;;;;;;4991843;28;20666;-76
2022/06/28 10:15:27;;;;;;;2.85;1.60;;;36.60;1.00;;;;;;5010028;28;20200;-76
2022/06/28 10:18:00;;;;;;;3.42;1.50;;;36.40;1.00;;;;;;5011172;28;20173;-76
2022/06/28 10:20:37;;;;;;;2.78;1.60;;;36.60;1.00;;;;;;5010189;28;20331;-76
2022/06/28 10:23:24;;;;;;;2.92;1.80;;;37.30;1.00;;;;;;5009973;28;20248;-76
2022/06/28 10:26:13;;;;;;;2.35;1.38;;;38.00;1.00;;;;;;4992520;28;20194;-76
2022/06/28 10:29:05;;;;;;;3.35;1.60;;;38.70;1.00;;;;;;5027782;28;20181;-76
2022/06/28 10:31:42;;;;;;;3.58;1.65;;;39.20;1.00;;;;;;5011114;28;20201;-76
2022/06/28 10:34:12;;;;;;;2.78;1.77;;;39.00;1.00;;;;;;5029667;28;20347;-76
2022/06/28 10:36:52;;;;;;;4.07;1.65;;;38.60;1.00;;;;;;5011600;28;20173;-76
2022/06/28 10:39:21;;;;;;;6.15;1.70;;;39.00;1.00;;;;;;5003821;28;20170;-76
2022/06/28 10:41:58;;;;;;;3.47;1.50;;;39.80;1.00;;;;;;5009661;28;20208;-76
2022/06/28 10:44:42;;;;;;;3.13;1.52;;;40.50;1.00;;;;;;4992363;28;20224;-76
2022/06/28 10:47:09;;;;;;;3.22;1.50;;;41.00;1.00;;;;;;5009594;28;20189;-76
2022/06/28 10:49:46;;;;;;;5.13;1.52;;;41.00;1.00;;;;;;5010175;28;20174;-76
2022/06/28 10:52:15;;;;;;;2.78;1.55;;;40.90;1.00;;;;;;4991383;28;20188;-76
2022/06/28 10:55:03;;;;;;;3.50;1.60;;;41.10;1.00;;;;;;4992044;28;20594;-76
2022/06/28 10:57:32;;;;;;;3.10;1.77;;;41.50;1.00;;;;;;5002072;28;20219;-76
2022/06/28 11:00:00;;;;;;;3.47;1.50;;;41.80;1.00;;;;;;5029943;28;20185;-76
2022/06/28 11:03:05;;;;;;;2.70;1.60;;;41.40;1.00;;;;;;5010477;28;20205;-76
2022/06/28 11:05:51;;;;;;;3.40;1.85;;;40.50;1.00;;;;;;5014295;28;20255;-76
2022/06/28 11:08:38;;;;;;;6.57;1.70;;;40.40;1.00;;;;;;5003921;28;20678;-77
2022/06/28 11:11:05;;;;;;;6.45;1.50;;;40.30;1.00;;;;;;5009084;28;20260;-76
2022/06/28 11:13:31;;;;;;;2.10;1.42;;;40.50;1.00;;;;;;5009997;28;20189;-76
2022/06/28 11:15:57;;;;;;;2.33;1.30;;;41.40;1.00;;;;;;5008973;28;20194;-77
2022/06/28 11:18:25;;;;;;;2.97;1.35;;;41.90;1.00;;;;;;5009763;28;20181;-75
2022/06/28 11:20:52;;;;;;;3.63;1.30;;;42.20;1.00;;;;;;5009091;28;20198;-77
2022/06/28 11:23:44;;;;;;;2.92;1.55;;;42.90;1.00;;;;;;5009395;28;20629;-77
2022/06/28 11:29:03;;;;;;;2.20;1.30;;;43.20;1.00;;;;;;5021073;28;20628;-77
2022/06/28 11:31:30;;;;;;;2.33;1.50;;;43.10;1.00;;;;;;5027992;28;20192;-77
2022/06/28 11:33:56;;;;;;;5.07;1.40;;;43.10;1.00;;;;;;5028371;28;20800;-77
2022/06/28 11:36:27;;;;;;;2.78;1.10;;;43.70;1.00;;;;;;5011119;28;20192;-76
2022/06/28 11:38:52;;;;;;;3.20;1.55;;;43.40;1.00;;;;;;4991721;28;20474;-77
2022/06/28 11:41:31;;;;;;;2.78;1.30;;;43.70;1.00;;;;;;5008644;28;20205;-76
2022/06/28 11:43:59;;;;;;;2.42;1.25;;;44.00;1.00;;;;;;5008030;28;20641;-77
2022/06/28 11:46:26;;;;;;;2.35;1.45;;;43.90;1.00;;;;;;4990646;28;20166;-77
2022/06/28 11:48:52;;;;;;;3.17;1.20;;;43.90;1.00;;;;;;5008581;28;20174;-77
2022/06/28 11:51:27;;;;;;;3.75;1.90;;;43.90;1.00;;;;;;5008579;28;20197;-76
2022/06/28 11:53:53;;;;;;;2.45;1.30;;;43.80;1.00;;;;;;5008006;28;20176;-77
2022/06/28 11:56:18;;;;;;;2.50;1.50;;;43.00;1.00;;;;;;5008681;28;20261;-77
2022/06/28 11:58:45;;;;;;;1.90;1.10;;;43.00;1.00;;;;;;5008524;28;20256;-76
2022/06/28 12:01:12;;;;;;;2.05;1.20;;;43.40;1.00;;;;;;5027384;28;20656;-77
2022/06/28 12:03:43;;;;;;;4.07;1.70;;;43.90;1.00;;;;;;5028301;28;20254;-77
2022/06/28 12:06:18;;;;;;;6.38;1.42;;;44.20;1.00;;;;;;5011407;28;20170;-77
2022/06/28 12:08:52;;;;;;;2.38;1.40;;;44.10;1.00;;;;;;5008390;28;20158;-77
2022/06/28 12:11:28;;;;;;;10.50;1.40;;;44.20;1.00;;;;;;5008232;28;20268;-76
2022/06/28 12:14:03;;;;;;;2.67;1.40;;;43.90;1.00;;;;;;5008953;28;20193;-76
2022/06/28 12:16:31;;;;;;;2.50;1.40;;;43.90;1.00;;;;;;5008143;28;20622;-77
2022/06/28 12:18:57;;;;;;;4.22;1.40;;;43.00;1.00;;;;;;5008446;28;20708;-76
2022/06/28 12:21:23;;;;;;;3.58;1.40;;;43.20;1.00;;;;;;5008168;28;20208;-77
2022/06/28 12:23:50;;;;;;;4.78;1.50;;;42.90;1.00;;;;;;5007962;28;20617;-76
2022/06/28 12:26:17;;;;;;;3.00;1.30;;;42.80;1.00;;;;;;5008608;28;20170;-77
2022/06/28 12:28:43;;;;;;;2.42;1.50;;;41.80;1.00;;;;;;5008374;28;20228;-76
2022/06/28 12:31:08;;;;;;;4.40;1.58;;;42.00;1.00;;;;;;5007360;28;20173;-76
2022/06/28 12:33:34;;;;;;;2.25;1.30;;;42.20;1.00;;;;;;5010977;28;20189;-77
2022/06/28 12:35:59;;;;;;;2.17;1.20;;;42.80;1.00;;;;;;5012103;28;20194;-77
2022/06/28 12:38:25;;;;;;;3.80;1.52;;;43.00;1.00;;;;;;5012386;28;20166;-76
2022/06/28 12:40:50;;;;;;;3.47;1.75;;;42.60;1.00;;;;;;5012108;28;20202;-77
2022/06/28 12:43:16;;;;;;;2.72;1.50;;;42.20;1.00;;;;;;5012140;28;20204;-76
2022/06/28 12:45:41;;;;;;;4.85;1.60;;;42.00;1.00;;;;;;5011582;28;20299;-76
2022/06/28 12:48:08;;;;;;;2.38;1.30;;;42.50;1.00;;;;;;5012691;28;20174;-77
2022/06/28 12:50:33;;;;;;;2.70;1.40;;;43.20;1.00;;;;;;5011718;28;20549;-76
2022/06/28 12:52:59;;;;;;;2.90;1.73;;;43.90;1.00;;;;;;5011354;28;20176;-77
2022/06/28 12:55:24;;;;;;;2.28;1.48;;;43.50;1.00;;;;;;5011771;28;20261;-77
2022/06/28 12:57:50;;;;;;;2.78;1.42;;;43.40;1.00;;;;;;5004772;28;20235;-76
2022/06/28 13:00:16;;;;;;;4.15;1.40;;;43.40;1.00;;;;;;5031510;28;20260;-77
2022/06/28 13:02:42;;;;;;;2.65;1.40;;;43.70;1.00;;;;;;5031003;28;20216;-77
2022/06/28 13:05:10;;;;;;;3.20;1.60;;;43.20;1.00;;;;;;5019921;28;20520;-76
2022/06/28 13:07:41;;;;;;;2.58;1.48;;;42.50;1.00;;;;;;5011302;28;20166;-77